createdAt,value
2017-05-19T00:08:01.381Z,0
2017-05-19T00:18:16.522Z,0
2017-05-19T00:28:31.192Z,0
2017-05-19T00:38:46.900Z,0
2017-05-19T00:49:02.247Z,0
2017-05-19T00:59:17.062Z,0
2017-05-19T01:09:32.498Z,0
2017-05-19T01:19:47.034Z,0
2017-05-19T01:30:01.058Z,0
2017-05-19T01:40:15.731Z,0
2017-05-19T01:50:30.343Z,0
2017-05-19T02:00:45.614Z,0
2017-05-19T02:11:00.520Z,0
2017-05-19T02:21:15.293Z,0
2017-05-19T02:31:30.645Z,0
2017-05-19T02:41:44.966Z,0
2017-05-19T02:51:59.803Z,0
2017-05-19T03:02:13.678Z,8
2017-05-19T03:12:28.347Z,24
2017-05-19T03:22:43.223Z,52
2017-05-19T03:32:57.695Z,120
2017-05-19T03:43:11.803Z,448
2017-05-19T03:53:26.005Z,660
2017-05-19T04:03:39.867Z,1064
2017-05-19T04:13:55.502Z,1924
2017-05-19T04:24:09.918Z,1932
2017-05-19T04:34:24.833Z,2572
2017-05-19T04:44:40.250Z,4856
2017-05-19T04:54:55.182Z,9376
2017-05-19T05:05:10.045Z,5256
2017-05-19T05:15:24.884Z,4692
2017-05-19T05:25:39.342Z,4176
2017-05-19T05:35:53.600Z,4160
2017-05-19T05:46:09.247Z,5304
2017-05-19T05:56:24.399Z,5992
2017-05-19T06:06:39.827Z,6428
2017-05-19T06:16:54.627Z,8108
2017-05-19T06:27:09.268Z,8860
2017-05-19T06:37:23.274Z,11504
2017-05-19T06:47:37.848Z,12920
2017-05-19T06:57:53.229Z,12628
2017-05-19T07:08:07.660Z,15600
2017-05-19T07:18:23.052Z,19744
2017-05-19T07:28:37.244Z,15316
2017-05-19T07:38:52.383Z,16264
2017-05-19T07:49:07.052Z,10300
2017-05-19T07:59:22.020Z,11724
2017-05-19T08:09:37.467Z,10076
2017-05-19T08:19:52.466Z,11896
2017-05-19T08:30:06.720Z,10148
2017-05-19T08:40:21.196Z,15420
2017-05-19T08:50:35.243Z,17600
2017-05-19T09:00:49.489Z,18816
2017-05-19T09:11:03.293Z,22432
2017-05-19T09:21:18.540Z,28992
2017-05-19T09:31:33.044Z,22112
2017-05-19T09:41:46.927Z,20064
2017-05-19T09:52:01.629Z,23360
2017-05-19T10:02:15.917Z,28320
2017-05-19T10:12:30.039Z,28992
2017-05-19T10:22:44.479Z,33408
2017-05-19T10:32:59.516Z,52256
2017-05-19T10:43:14.918Z,42944
2017-05-19T10:53:30.030Z,35328
2017-05-19T11:03:45.300Z,32064
2017-05-19T11:13:59.332Z,15820
2017-05-19T11:24:14.046Z,14940
2017-05-19T11:34:28.442Z,11524
2017-05-19T11:44:43.391Z,11032
2017-05-19T11:54:57.481Z,16396
2017-05-19T12:05:13.245Z,14572
2017-05-19T12:15:27.370Z,15012
2017-05-19T12:25:43.117Z,10764
2017-05-19T12:35:58.437Z,13912
2017-05-19T12:46:13.603Z,9928
2017-05-19T12:56:29.313Z,7892
2017-05-19T13:06:43.310Z,11460
2017-05-19T13:16:57.169Z,15188
2017-05-19T13:27:11.713Z,8432
2017-05-19T13:37:26.511Z,5544
2017-05-19T13:47:42.171Z,12724
2017-05-19T13:57:56.415Z,12040
2017-05-19T14:08:11.556Z,6088
2017-05-19T14:18:27.023Z,7236
2017-05-19T14:28:42.036Z,11652
2017-05-19T14:38:55.930Z,10656
2017-05-19T14:49:09.981Z,9892
2017-05-19T14:59:24.583Z,7704
2017-05-19T15:09:38.410Z,4856
2017-05-19T15:19:53.145Z,4648
2017-05-19T15:30:07.516Z,6212
2017-05-19T15:40:22.597Z,5328
2017-05-19T15:50:37.818Z,6628
2017-05-19T16:00:52.488Z,5396
2017-05-19T16:11:06.523Z,6228
2017-05-19T16:21:21.128Z,5468
2017-05-19T16:31:36.233Z,5468
2017-05-19T16:41:51.899Z,5040
2017-05-19T16:52:06.673Z,6700
2017-05-19T17:02:21.365Z,3784
2017-05-19T17:12:36.733Z,3160
2017-05-19T17:22:50.689Z,3512
2017-05-19T17:33:05.225Z,3856
2017-05-19T17:43:19.325Z,3300
2017-05-19T17:53:34.823Z,3896
2017-05-19T18:03:49.049Z,2584
2017-05-19T18:14:03.718Z,1788
2017-05-19T18:24:19.308Z,1452
2017-05-19T18:34:33.950Z,1304
2017-05-19T18:44:47.994Z,2540
2017-05-19T18:55:03.570Z,2248
2017-05-19T19:05:18.249Z,1180
2017-05-19T19:15:32.232Z,328
2017-05-19T19:25:46.176Z,152
2017-05-19T19:36:00.542Z,48
2017-05-19T19:46:16.006Z,12
2017-05-19T19:56:31.068Z,4
2017-05-19T20:06:45.030Z,0
2017-05-19T20:17:00.729Z,0
2017-05-19T20:27:15.614Z,0
2017-05-19T20:37:30.464Z,0
2017-05-19T20:47:45.116Z,0
2017-05-19T20:57:59.335Z,0
2017-05-19T21:08:13.130Z,0
2017-05-19T21:18:27.947Z,0
2017-05-19T21:28:41.727Z,0
2017-05-19T21:38:55.624Z,0
2017-05-19T21:49:09.919Z,0
2017-05-19T21:59:24.712Z,0
2017-05-19T22:09:39.409Z,0
2017-05-19T22:19:53.575Z,0
2017-05-19T22:30:09.169Z,0
2017-05-19T22:40:23.713Z,0
2017-05-19T22:50:38.942Z,0
2017-05-19T23:00:54.233Z,0
2017-05-19T23:11:07.995Z,0
2017-05-19T23:21:21.742Z,0
2017-05-19T23:31:35.521Z,0
2017-05-19T23:41:50.360Z,0
2017-05-19T23:52:04.118Z,0
